Time;durP1;ratioP1;P1;durP2;ratioP2;P2;SDS_P1;SDS_P2;PMS_P1;PMS_P2;Temp;Humidity;BMP_temperature;BMP_pressure;BME280_temperature;BME280_humidity;BME280_pressure;Samples;Min_cycle;Max_cycle;Signal;HPM_P1;HPM_P2
2022/10/10 05:47:47;;;;;;;5.05;3.72;;;;;;;;;;4964913;28;20550;-75
2022/10/10 05:50:30;;;;;;;5.88;3.60;;;;;;;;;;4969771;28;20035;-76
2022/10/10 05:52:57;;;;;;;5.80;3.30;;;;;;;;;;4953024;28;20134;-75
2022/10/10 05:55:23;;;;;;;4.28;3.50;;;;;;;;;;4950598;28;20039;-74
2022/10/10 05:57:50;;;;;;;8.18;4.45;;;;;;;;;;4934196;29;20035;-75
2022/10/10 06:00:17;;;;;;;8.43;4.13;;;;;;;;;;4950965;29;20035;-76
2022/10/10 06:02:43;;;;;;;5.75;3.65;;;;;;;;;;4966574;28;20031;-75
2022/10/10 06:05:09;;;;;;;5.47;3.67;;;;;;;;;;4974064;28;20044;-76
2022/10/10 06:07:36;;;;;;;7.85;4.13;;;;;;;;;;4973680;28;20482;-75
2022/10/10 06:10:03;;;;;;;5.50;3.78;;;;;;;;;;4940264;28;20030;-76
2022/10/10 06:12:29;;;;;;;4.93;3.90;;;;;;;;;;4972815;28;20070;-76
2022/10/10 06:14:56;;;;;;;9.15;3.72;;;;;;;;;;4940953;28;20043;-75
2022/10/10 06:17:23;;;;;;;7.63;3.53;;;;;;;;;;4967176;28;20060;-75
2022/10/10 06:19:49;;;;;;;5.40;3.03;;;;;;;;;;4983363;28;20509;-75
2022/10/10 06:22:15;;;;;;;4.00;3.67;;;;;;;;;;4940817;28;20062;-76
2022/10/10 06:24:42;;;;;;;4.50;2.78;;;;;;;;;;4973806;28;20039;-75
2022/10/10 06:27:08;;;;;;;3.15;2.80;;;;;;;;;;4972582;28;20049;-75
2022/10/10 06:29:34;;;;;;;4.30;2.58;;;;;;;;;;4972718;28;20026;-75
2022/10/10 06:32:00;;;;;;;3.85;2.45;;;;;;;;;;4957043;28;20117;-73
2022/10/10 06:34:26;;;;;;;3.95;3.38;;;;;;;;;;4976824;28;20511;-76
2022/10/10 06:36:53;;;;;;;5.93;3.03;;;;;;;;;;4940660;28;20039;-75
2022/10/10 06:39:18;;;;;;;3.67;3.25;;;;;;;;;;4956779;28;20062;-75
2022/10/10 06:41:47;;;;;;;2.90;2.67;;;;;;;;;;4956584;28;20116;-78
2022/10/10 06:44:13;;;;;;;8.63;3.70;;;;;;;;;;4956277;28;20031;-77
2022/10/10 06:46:39;;;;;;;8.30;3.03;;;;;;;;;;4949021;28;20382;-78
2022/10/10 06:49:06;;;;;;;2.92;2.67;;;;;;;;;;4954240;29;20097;-76
2022/10/10 06:51:32;;;;;;;9.23;2.80;;;;;;;;;;4953881;29;20043;-77
2022/10/10 06:53:59;;;;;;;3.60;3.20;;;;;;;;;;4937033;29;20031;-78
2022/10/10 06:56:25;;;;;;;4.15;2.70;;;;;;;;;;4934989;29;20035;-75
2022/10/10 06:58:51;;;;;;;5.20;3.20;;;;;;;;;;4953864;29;20039;-74
2022/10/10 07:01:20;;;;;;;3.65;3.13;;;;;;;;;;4953688;29;20042;-75
2022/10/10 07:03:46;;;;;;;9.55;3.25;;;;;;;;;;4953673;29;20042;-75
2022/10/10 07:06:13;;;;;;;6.90;3.17;;;;;;;;;;4953879;29;20113;-75
2022/10/10 07:08:39;;;;;;;4.18;2.83;;;;;;;;;;4954826;29;20043;-76
2022/10/10 07:11:06;;;;;;;4.55;3.10;;;;;;;;;;4940064;29;20055;-77
2022/10/10 07:13:33;;;;;;;3.92;2.80;;;;;;;;;;4920612;29;20051;-77
2022/10/10 07:15:59;;;;;;;2.80;2.60;;;;;;;;;;4953667;29;20035;-79
2022/10/10 07:18:25;;;;;;;6.40;3.28;;;;;;;;;;4953072;29;20106;-75
2022/10/10 07:20:54;;;;;;;4.72;2.95;;;;;;;;;;4953109;29;20451;-79
2022/10/10 07:23:20;;;;;;;2.95;2.67;;;;;;;;;;4936549;29;20035;-77
2022/10/10 07:25:46;;;;;;;4.15;2.80;;;;;;;;;;4952473;28;20565;-76
2022/10/10 07:28:13;;;;;;;2.88;2.67;;;;;;;;;;4955655;28;20145;-77
2022/10/10 07:30:42;;;;;;;3.63;3.15;;;;;;;;;;4972411;28;20035;-77
2022/10/10 07:33:09;;;;;;;2.92;2.65;;;;;;;;;;4923922;28;20042;-79
2022/10/10 07:35:35;;;;;;;3.63;2.65;;;;;;;;;;4971894;28;20514;-79
2022/10/10 07:38:01;;;;;;;4.38;2.78;;;;;;;;;;4943726;28;20035;-79
2022/10/10 07:40:27;;;;;;;2.55;2.10;;;;;;;;;;4958680;28;20399;-77
2022/10/10 07:42:53;;;;;;;3.58;2.90;;;;;;;;;;4935931;29;20444;-77
2022/10/10 07:45:19;;;;;;;2.58;2.38;;;;;;;;;;4934578;29;20063;-76
2022/10/10 07:47:45;;;;;;;5.55;2.33;;;;;;;;;;4934300;28;20127;-76
2022/10/10 07:50:12;;;;;;;4.22;2.55;;;;;;;;;;4969086;28;20411;-78
2022/10/10 07:52:38;;;;;;;3.08;2.50;;;;;;;;;;4970751;28;20042;-76
2022/10/10 07:55:05;;;;;;;5.88;2.50;;;;;;;;;;4969725;28;20041;-79
2022/10/10 07:57:34;;;;;;;4.78;2.38;;;;;;;;;;4921802;28;20069;-78
2022/10/10 08:00:06;;;;;;;7.05;2.55;;;;;;;;;;4971383;28;20041;-77
2022/10/10 08:02:42;;;;;;;9.90;3.22;;;;;;;;;;4971322;28;20117;-77
2022/10/10 08:05:08;;;;;;;2.70;2.28;;;;;;;;;;4972243;28;20407;-78
2022/10/10 08:07:34;;;;;;;5.38;3.13;;;;;;;;;;4954914;28;20054;-77
2022/10/10 08:10:01;;;;;;;5.25;2.00;;;;;;;;;;4955447;28;20031;-77
2022/10/10 08:12:28;;;;;;;2.72;2.10;;;;;;;;;;4970769;28;20104;-77
2022/10/10 08:14:55;;;;;;;5.68;2.58;;;;;;;;;;4970932;28;20499;-75
2022/10/10 08:17:21;;;;;;;2.85;2.22;;;;;;;;;;4971171;28;20034;-77
2022/10/10 08:19:47;;;;;;;4.10;2.20;;;;;;;;;;4953929;28;20114;-77
2022/10/10 08:22:14;;;;;;;2.80;2.28;;;;;;;;;;4971212;28;20100;-77
2022/10/10 08:24:40;;;;;;;2.10;2.00;;;;;;;;;;4953817;28;20509;-77
2022/10/10 08:27:06;;;;;;;2.90;2.20;;;;;;;;;;4933637;29;20047;-76
2022/10/10 08:29:33;;;;;;;3.10;2.15;;;;;;;;;;4952870;29;20035;-76
2022/10/10 08:31:59;;;;;;;3.65;2.13;;;;;;;;;;4920162;29;20041;-76
2022/10/10 08:34:26;;;;;;;4.88;2.28;;;;;;;;;;4951467;29;20044;-76
2022/10/10 08:36:52;;;;;;;3.20;2.70;;;;;;;;;;4950931;29;20039;-76
2022/10/10 08:39:18;;;;;;;6.13;2.60;;;;;;;;;;4951212;29;20054;-76
2022/10/10 08:41:49;;;;;;;5.97;3.03;;;;;;;;;;4932880;29;20076;-75
2022/10/10 08:44:25;;;;;;;6.13;3.17;;;;;;;;;;4950797;29;20039;-74
2022/10/10 08:47:01;;;;;;;3.42;2.53;;;;;;;;;;4933667;29;20066;-76
2022/10/10 08:49:35;;;;;;;4.20;2.03;;;;;;;;;;4930076;29;20035;-77
2022/10/10 08:52:05;;;;;;;4.57;2.08;;;;;;;;;;4948018;29;20095;-75
2022/10/10 08:54:33;;;;;;;5.47;2.60;;;;;;;;;;4960418;29;20035;-75
2022/10/10 08:56:59;;;;;;;7.75;2.20;;;;;;;;;;4935369;29;20499;-76
2022/10/10 08:59:26;;;;;;;4.38;2.13;;;;;;;;;;4952472;29;20043;-76
2022/10/10 09:01:54;;;;;;;2.33;2.15;;;;;;;;;;4935146;29;20067;-76
2022/10/10 09:04:20;;;;;;;2.33;2.13;;;;;;;;;;4935431;29;20043;-75
2022/10/10 09:07:05;;;;;;;4.22;2.00;;;;;;;;;;4953210;29;20125;-75
2022/10/10 09:09:38;;;;;;;2.35;2.15;;;;;;;;;;4935080;29;20495;-75
2022/10/10 09:12:23;;;;;;;4.85;3.60;;;;;;;;;;4934954;29;20027;-75
2022/10/10 09:14:51;;;;;;;5.25;2.38;;;;;;;;;;4952064;29;20050;-74
2022/10/10 09:17:19;;;;;;;4.55;1.90;;;;;;;;;;4935161;29;20039;-76
2022/10/10 09:20:04;;;;;;;4.50;2.00;;;;;;;;;;4951758;29;20043;-75
2022/10/10 09:22:30;;;;;;;4.55;2.60;;;;;;;;;;4951816;29;20092;-76
2022/10/10 09:24:59;;;;;;;2.58;2.35;;;;;;;;;;4939331;28;20031;-77
2022/10/10 09:27:29;;;;;;;3.70;2.13;;;;;;;;;;4991213;28;20050;-76
2022/10/10 09:30:01;;;;;;;2.00;1.90;;;;;;;;;;4957919;28;20137;-76
2022/10/10 09:32:38;;;;;;;3.15;2.60;;;;;;;;;;4974019;28;20034;-75
2022/10/10 09:35:23;;;;;;;2.72;2.15;;;;;;;;;;4972776;28;20042;-76
2022/10/10 09:37:50;;;;;;;3.65;1.67;;;;;;;;;;4957013;28;20078;-76
2022/10/10 09:40:18;;;;;;;2.20;2.00;;;;;;;;;;4973443;28;20093;-76
2022/10/10 09:42:44;;;;;;;2.00;1.90;;;;;;;;;;4973069;28;20506;-76
2022/10/10 09:45:18;;;;;;;3.05;2.10;;;;;;;;;;4973041;28;20033;-75
2022/10/10 09:47:48;;;;;;;3.47;2.20;;;;;;;;;;4970253;28;20514;-77
2022/10/10 09:50:15;;;;;;;2.43;2.23;;;;;;;;;;4959642;28;20058;-76
2022/10/10 09:52:41;;;;;;;6.15;2.13;;;;;;;;;;4971000;28;20049;-76
2022/10/10 09:55:25;;;;;;;2.83;1.90;;;;;;;;;;4971158;28;20129;-75
2022/10/10 09:57:52;;;;;;;3.65;3.35;;;;;;;;;;4953793;28;20042;-76
2022/10/10 10:00:19;;;;;;;5.72;2.97;;;;;;;;;;4938079;28;20034;-77
2022/10/10 10:02:49;;;;;;;4.93;4.43;;;;;;;;;;4953512;28;20077;-76
2022/10/10 10:05:23;;;;;;;5.75;3.00;;;;;;;;;;4953582;28;20054;-75
2022/10/10 10:07:51;;;;;;;2.38;2.17;;;;;;;;;;4953424;28;20501;-76
2022/10/10 10:10:25;;;;;;;3.30;2.55;;;;;;;;;;4937899;28;20035;-76
2022/10/10 10:12:51;;;;;;;2.30;2.15;;;;;;;;;;4969360;28;20663;-75
2022/10/10 10:15:21;;;;;;;6.32;3.17;;;;;;;;;;4937501;28;20022;-75
2022/10/10 10:18:07;;;;;;;3.80;2.60;;;;;;;;;;4937445;28;20038;-76
2022/10/10 10:20:34;;;;;;;1.80;1.70;;;;;;;;;;4953453;28;20113;-76
2022/10/10 10:23:00;;;;;;;3.50;1.73;;;;;;;;;;4970564;28;20097;-75
2022/10/10 10:25:27;;;;;;;1.73;1.63;;;;;;;;;;4959143;28;20038;-76
2022/10/10 10:28:10;;;;;;;2.63;2.30;;;;;;;;;;4989480;28;20133;-76
2022/10/10 10:30:36;;;;;;;2.90;1.88;;;;;;;;;;4989677;28;20038;-76
2022/10/10 10:33:05;;;;;;;3.05;1.65;;;;;;;;;;4990056;28;20125;-75
2022/10/10 10:35:35;;;;;;;3.28;1.50;;;;;;;;;;4969406;28;20054;-76
2022/10/10 10:38:01;;;;;;;1.85;1.75;;;;;;;;;;4957852;28;20050;-76
2022/10/10 10:40:41;;;;;;;1.65;1.55;;;;;;;;;;4970564;28;20142;-75
2022/10/10 10:43:17;;;;;;;2.45;1.73;;;;;;;;;;4953950;28;20073;-75
2022/10/10 10:45:47;;;;;;;2.72;1.80;;;;;;;;;;4968598;28;20695;-74
2022/10/10 10:48:17;;;;;;;2.50;1.75;;;;;;;;;;4970343;28;20130;-75
2022/10/10 10:50:48;;;;;;;5.28;1.80;;;;;;;;;;4971957;28;20042;-76
2022/10/10 10:53:23;;;;;;;2.55;1.83;;;;;;;;;;4931369;28;20038;-75
2022/10/10 10:55:57;;;;;;;2.00;1.90;;;;;;;;;;4970131;28;20542;-76
2022/10/10 10:58:26;;;;;;;1.52;1.50;;;;;;;;;;4971122;28;20038;-76
2022/10/10 11:00:57;;;;;;;2.15;2.05;;;;;;;;;;4970676;28;20031;-75
2022/10/10 11:03:36;;;;;;;2.13;2.00;;;;;;;;;;4971508;28;20085;-75
2022/10/10 11:06:18;;;;;;;3.47;2.28;;;;;;;;;;4952649;28;20035;-75
2022/10/10 11:09:02;;;;;;;1.75;1.65;;;;;;;;;;4972105;28;20042;-76
2022/10/10 11:11:31;;;;;;;4.30;1.52;;;;;;;;;;4964869;28;20042;-76
2022/10/10 11:13:57;;;;;;;3.20;2.65;;;;;;;;;;4939523;28;20185;-77
2022/10/10 11:16:28;;;;;;;2.03;1.92;;;;;;;;;;4970337;28;20117;-74
2022/10/10 11:18:56;;;;;;;2.88;2.05;;;;;;;;;;4959864;28;20566;-75
2022/10/10 11:21:23;;;;;;;2.20;2.10;;;;;;;;;;4971268;28;20419;-75
2022/10/10 11:23:51;;;;;;;5.13;1.95;;;;;;;;;;4957908;28;20023;-77
2022/10/10 11:26:19;;;;;;;3.25;2.10;;;;;;;;;;4975565;28;20096;-76
2022/10/10 11:29:05;;;;;;;2.33;2.10;;;;;;;;;;4958274;28;20047;-76
2022/10/10 11:31:32;;;;;;;2.90;2.03;;;;;;;;;;4975859;28;20514;-76
2022/10/10 11:34:00;;;;;;;3.22;2.22;;;;;;;;;;4962460;28;20442;-76
2022/10/10 11:36:29;;;;;;;2.42;2.08;;;;;;;;;;4962442;28;20086;-77
2022/10/10 11:39:10;;;;;;;3.85;1.75;;;;;;;;;;4962600;28;20035;-77
2022/10/10 11:41:40;;;;;;;2.20;2.10;;;;;;;;;;4974123;28;20571;-75
2022/10/10 11:44:10;;;;;;;2.75;2.38;;;;;;;;;;4972319;28;20388;-77
2022/10/10 11:46:59;;;;;;;2.97;2.20;;;;;;;;;;4971232;28;20535;-76
2022/10/10 11:49:32;;;;;;;4.97;3.17;;;;;;;;;;4974034;28;20046;-77
2022/10/10 11:52:17;;;;;;;2.22;2.03;;;;;;;;;;4958421;28;20035;-76
2022/10/10 11:54:46;;;;;;;3.08;1.73;;;;;;;;;;4974756;28;20039;-77
2022/10/10 11:57:17;;;;;;;2.63;2.30;;;;;;;;;;4937046;28;20035;-76
2022/10/10 11:59:51;;;;;;;2.28;2.10;;;;;;;;;;4961217;28;20034;-77
2022/10/10 12:02:19;;;;;;;3.05;2.50;;;;;;;;;;4950452;28;20031;-77
2022/10/10 12:04:45;;;;;;;2.17;2.05;;;;;;;;;;4968363;28;20039;-79
2022/10/10 12:07:34;;;;;;;11.00;2.45;;;;;;;;;;4939055;28;20057;-81
2022/10/10 12:10:20;;;;;;;1.90;1.80;;;;;;;;;;4966887;28;20078;-76
2022/10/10 12:12:47;;;;;;;2.50;2.30;;;;;;;;;;4951295;28;20049;-75
2022/10/10 12:15:16;;;;;;;4.15;2.42;;;;;;;;;;4978889;28;20030;-81
2022/10/10 12:17:43;;;;;;;2.58;2.38;;;;;;;;;;4938776;28;20035;-73
2022/10/10 12:20:15;;;;;;;4.05;2.63;;;;;;;;;;4971042;28;20031;-71
2022/10/10 12:22:41;;;;;;;7.45;4.60;;;;;;;;;;4968380;28;20415;-72
2022/10/10 12:25:24;;;;;;;3.15;2.60;;;;;;;;;;4956377;28;20696;-72
2022/10/10 12:28:26;;;;;;;8.43;3.47;;;;;;;;;;4972929;28;20128;-73
2022/10/10 12:30:54;;;;;;;5.30;2.70;;;;;;;;;;4903805;29;20037;-74
2022/10/10 12:33:27;;;;;;;3.72;2.90;;;;;;;;;;4938913;28;20038;-72
2022/10/10 12:35:53;;;;;;;2.83;2.63;;;;;;;;;;4971196;28;20129;-71
2022/10/10 12:38:20;;;;;;;6.70;2.60;;;;;;;;;;4954313;28;20030;-73
2022/10/10 12:41:05;;;;;;;5.97;3.25;;;;;;;;;;4952995;28;20042;-72
2022/10/10 12:43:37;;;;;;;3.97;2.72;;;;;;;;;;4971255;28;20034;-72
2022/10/10 12:46:06;;;;;;;6.63;2.50;;;;;;;;;;4971794;28;20086;-72
2022/10/10 12:48:32;;;;;;;2.28;2.15;;;;;;;;;;4939899;28;20046;-73
2022/10/10 12:50:59;;;;;;;6.60;3.92;;;;;;;;;;4971453;28;20030;-72
2022/10/10 12:53:26;;;;;;;3.03;2.40;;;;;;;;;;4971608;28;20047;-73
2022/10/10 12:55:52;;;;;;;4.68;2.78;;;;;;;;;;4939551;28;20410;-72
2022/10/10 12:58:30;;;;;;;6.05;2.40;;;;;;;;;;4971273;28;20053;-72
2022/10/10 13:01:06;;;;;;;2.22;2.10;;;;;;;;;;4953919;28;20031;-72
2022/10/10 13:03:41;;;;;;;4.05;2.55;;;;;;;;;;4965127;28;20035;-72
2022/10/10 13:06:10;;;;;;;3.03;2.40;;;;;;;;;;4991042;28;20550;-72
2022/10/10 13:08:36;;;;;;;4.47;2.17;;;;;;;;;;4973645;28;20054;-73
2022/10/10 13:11:04;;;;;;;6.20;2.55;;;;;;;;;;4990709;28;20121;-72
2022/10/10 13:13:30;;;;;;;6.05;2.33;;;;;;;;;;4990315;28;20034;-72
2022/10/10 13:15:57;;;;;;;3.58;2.80;;;;;;;;;;4990801;28;20037;-72
2022/10/10 13:18:34;;;;;;;4.90;2.70;;;;;;;;;;4990805;28;20038;-72
2022/10/10 13:21:01;;;;;;;8.30;2.88;;;;;;;;;;4990632;28;20049;-72
2022/10/10 13:23:26;;;;;;;3.72;2.97;;;;;;;;;;4957139;28;20097;-72
2022/10/10 13:25:53;;;;;;;5.03;2.28;;;;;;;;;;4990503;28;20048;-72
2022/10/10 13:28:19;;;;;;;2.25;2.10;;;;;;;;;;4990789;28;20097;-72
2022/10/10 13:30:46;;;;;;;2.50;2.25;;;;;;;;;;4990426;28;20066;-72
2022/10/10 13:33:13;;;;;;;2.92;2.55;;;;;;;;;;4990360;28;20049;-71
2022/10/10 13:35:40;;;;;;;2.75;2.30;;;;;;;;;;4973296;28;20109;-72
2022/10/10 13:38:06;;;;;;;7.78;3.30;;;;;;;;;;4990419;28;20600;-73
2022/10/10 13:40:32;;;;;;;2.55;2.30;;;;;;;;;;4972979;28;20027;-73
2022/10/10 13:42:59;;;;;;;2.40;2.20;;;;;;;;;;4989979;28;20065;-72
2022/10/10 13:45:29;;;;;;;3.85;2.42;;;;;;;;;;4990038;28;20510;-72
2022/10/10 13:48:01;;;;;;;3.42;2.50;;;;;;;;;;4989575;28;20058;-72
2022/10/10 13:50:29;;;;;;;3.50;2.30;;;;;;;;;;4972907;28;20035;-73
2022/10/10 13:53:13;;;;;;;2.78;2.35;;;;;;;;;;4989894;28;20127;-72
2022/10/10 13:55:41;;;;;;;2.60;2.40;;;;;;;;;;4990278;28;20036;-73
2022/10/10 13:58:07;;;;;;;3.35;2.42;;;;;;;;;;4990141;28;20089;-72
2022/10/10 14:00:33;;;;;;;4.55;3.40;;;;;;;;;;4973066;28;20045;-72
2022/10/10 14:03:00;;;;;;;2.38;2.17;;;;;;;;;;4972715;28;20042;-72
2022/10/10 14:05:28;;;;;;;7.35;2.78;;;;;;;;;;4990353;28;20042;-72
2022/10/10 14:07:54;;;;;;;2.85;2.50;;;;;;;;;;4989799;28;20042;-72
2022/10/10 14:10:21;;;;;;;2.58;2.40;;;;;;;;;;4972907;28;20073;-72
2022/10/10 14:12:50;;;;;;;2.97;2.75;;;;;;;;;;4989763;28;20066;-73
2022/10/10 14:15:35;;;;;;;3.33;3.00;;;;;;;;;;4972567;28;20430;-73
2022/10/10 14:18:02;;;;;;;5.72;4.13;;;;;;;;;;4989967;28;20195;-72
2022/10/10 14:20:28;;;;;;;8.25;3.47;;;;;;;;;;4972656;28;20037;-74
2022/10/10 14:22:54;;;;;;;6.88;4.05;;;;;;;;;;4990360;28;20042;-75
2022/10/10 14:25:20;;;;;;;3.58;3.22;;;;;;;;;;4993771;28;20058;-74
2022/10/10 14:27:46;;;;;;;6.20;3.25;;;;;;;;;;4993354;28;20537;-74
2022/10/10 14:30:15;;;;;;;5.68;3.88;;;;;;;;;;4976129;28;20410;-75
2022/10/10 14:32:41;;;;;;;12.48;4.85;;;;;;;;;;4993513;28;20128;-74
2022/10/10 14:35:08;;;;;;;21.50;7.47;;;;;;;;;;4959772;28;20092;-74
2022/10/10 14:37:37;;;;;;;12.02;5.68;;;;;;;;;;4993517;28;20494;-74
2022/10/10 14:40:05;;;;;;;11.75;4.28;;;;;;;;;;4975896;28;20038;-73
2022/10/10 14:42:31;;;;;;;15.48;5.82;;;;;;;;;;4975965;28;20038;-74
2022/10/10 14:44:58;;;;;;;17.30;4.88;;;;;;;;;;4993434;28;20034;-73
2022/10/10 14:47:25;;;;;;;18.67;6.65;;;;;;;;;;4993244;28;20434;-73
2022/10/10 14:49:52;;;;;;;24.83;7.28;;;;;;;;;;4994013;28;20041;-73
2022/10/10 14:52:18;;;;;;;12.95;5.15;;;;;;;;;;4993642;28;20038;-72
2022/10/10 14:54:44;;;;;;;16.88;4.90;;;;;;;;;;4993380;28;20196;-74
2022/10/10 14:57:11;;;;;;;9.50;4.43;;;;;;;;;;4991984;28;20034;-74
2022/10/10 14:59:37;;;;;;;6.55;3.47;;;;;;;;;;4959969;28;20498;-74
2022/10/10 15:02:03;;;;;;;6.15;3.20;;;;;;;;;;4992982;28;20042;-74
2022/10/10 15:04:29;;;;;;;4.03;3.63;;;;;;;;;;4993125;28;20034;-74
2022/10/10 15:06:55;;;;;;;3.50;2.72;;;;;;;;;;4992651;28;20065;-74
2022/10/10 15:09:22;;;;;;;3.60;3.25;;;;;;;;;;4975480;28;20038;-74
2022/10/10 15:11:48;;;;;;;3.22;2.92;;;;;;;;;;4975359;28;20042;-74
2022/10/10 15:14:14;;;;;;;3.42;3.13;;;;;;;;;;4992965;28;20108;-73
2022/10/10 15:16:40;;;;;;;4.55;3.10;;;;;;;;;;4975483;28;20474;-71
2022/10/10 15:19:06;;;;;;;4.00;3.33;;;;;;;;;;4963427;28;20039;-71
2022/10/10 15:21:32;;;;;;;8.23;3.58;;;;;;;;;;4972529;28;20049;-71
2022/10/10 15:24:00;;;;;;;5.78;3.58;;;;;;;;;;4955432;28;20054;-70
2022/10/10 15:26:26;;;;;;;4.85;3.65;;;;;;;;;;4973889;28;20039;-70
2022/10/10 15:28:53;;;;;;;6.20;3.55;;;;;;;;;;4972896;28;20699;-70
2022/10/10 15:31:24;;;;;;;5.03;3.17;;;;;;;;;;4973200;28;20027;-70
2022/10/10 15:33:53;;;;;;;9.18;3.55;;;;;;;;;;4972848;28;20042;-70
2022/10/10 15:36:19;;;;;;;6.63;4.28;;;;;;;;;;4972534;28;20034;-70
2022/10/10 15:38:45;;;;;;;5.68;3.83;;;;;;;;;;4972800;28;20097;-70
2022/10/10 15:41:12;;;;;;;3.80;3.50;;;;;;;;;;4956011;28;20039;-70
2022/10/10 15:43:53;;;;;;;4.90;3.70;;;;;;;;;;4972861;28;20537;-71
2022/10/10 15:46:19;;;;;;;9.30;4.13;;;;;;;;;;4956473;28;20035;-70
2022/10/10 15:48:46;;;;;;;6.40;4.20;;;;;;;;;;4955491;28;20051;-70
2022/10/10 15:51:12;;;;;;;11.50;4.20;;;;;;;;;;4972507;28;20046;-70
2022/10/10 15:53:38;;;;;;;8.45;4.10;;;;;;;;;;4939728;28;20035;-73
2022/10/10 15:56:08;;;;;;;8.65;4.35;;;;;;;;;;4971876;28;20042;-73
2022/10/10 15:58:34;;;;;;;8.63;4.47;;;;;;;;;;4964508;28;20058;-73
2022/10/10 16:01:06;;;;;;;5.43;3.40;;;;;;;;;;4955928;28;20035;-72
2022/10/10 16:03:33;;;;;;;7.57;4.07;;;;;;;;;;4959902;28;20186;-73
2022/10/10 16:06:00;;;;;;;4.32;3.25;;;;;;;;;;4962666;28;20042;-73
2022/10/10 16:08:26;;;;;;;5.45;3.10;;;;;;;;;;4959787;28;20133;-73
2022/10/10 16:10:52;;;;;;;3.53;3.22;;;;;;;;;;4972324;28;20038;-73
2022/10/10 16:13:18;;;;;;;5.28;3.20;;;;;;;;;;4972316;28;20062;-72
2022/10/10 16:15:54;;;;;;;3.95;3.65;;;;;;;;;;4971183;28;20050;-72
2022/10/10 16:18:20;;;;;;;4.38;3.28;;;;;;;;;;4971233;28;20085;-73
2022/10/10 16:20:47;;;;;;;5.82;3.38;;;;;;;;;;4971286;28;20035;-73
2022/10/10 16:23:13;;;;;;;10.27;3.42;;;;;;;;;;4972216;28;20130;-72
2022/10/10 16:25:39;;;;;;;4.28;3.65;;;;;;;;;;4974586;28;20030;-72
2022/10/10 16:28:06;;;;;;;4.90;3.83;;;;;;;;;;4974021;28;20493;-72
2022/10/10 16:30:31;;;;;;;4.20;3.90;;;;;;;;;;4991818;28;20034;-72
2022/10/10 16:32:58;;;;;;;4.13;3.72;;;;;;;;;;4991417;28;20443;-73
2022/10/10 16:35:24;;;;;;;5.45;3.90;;;;;;;;;;4991805;28;20038;-73
2022/10/10 16:37:51;;;;;;;7.28;4.10;;;;;;;;;;4991548;28;20447;-73
2022/10/10 16:40:17;;;;;;;4.65;4.25;;;;;;;;;;4983694;28;20162;-73
2022/10/10 16:42:44;;;;;;;9.38;4.55;;;;;;;;;;4953565;28;20618;-74
2022/10/10 16:45:10;;;;;;;4.65;4.25;;;;;;;;;;4970170;28;20027;-73
2022/10/10 16:47:37;;;;;;;5.07;4.15;;;;;;;;;;4951779;28;20053;-73
2022/10/10 16:50:03;;;;;;;4.07;3.42;;;;;;;;;;4961821;28;20455;-74
2022/10/10 16:52:29;;;;;;;5.80;4.22;;;;;;;;;;4964665;28;20042;-73
2022/10/10 16:54:55;;;;;;;6.05;3.65;;;;;;;;;;4936731;28;20462;-75
2022/10/10 16:57:21;;;;;;;5.40;4.80;;;;;;;;;;4978338;28;20038;-75
2022/10/10 16:59:47;;;;;;;9.68;4.38;;;;;;;;;;4972198;28;20031;-75
2022/10/10 17:02:12;;;;;;;5.95;3.95;;;;;;;;;;4971484;28;20030;-76
2022/10/10 17:04:39;;;;;;;11.15;3.92;;;;;;;;;;4976131;28;20034;-76
2022/10/10 17:07:04;;;;;;;7.45;4.60;;;;;;;;;;4946146;28;20035;-75
2022/10/10 17:09:31;;;;;;;6.47;4.80;;;;;;;;;;4975626;28;20031;-75
2022/10/10 17:11:57;;;;;;;6.30;4.45;;;;;;;;;;4957516;28;20057;-75
2022/10/10 17:14:23;;;;;;;13.88;4.50;;;;;;;;;;4972941;28;20513;-75
2022/10/10 17:16:48;;;;;;;6.35;4.28;;;;;;;;;;4938349;28;20039;-76
2022/10/10 17:19:15;;;;;;;10.38;4.65;;;;;;;;;;4954197;28;20035;-74
2022/10/10 17:21:41;;;;;;;8.23;5.18;;;;;;;;;;4971403;28;20030;-73
2022/10/10 17:24:07;;;;;;;8.40;4.90;;;;;;;;;;4969835;28;20527;-74
2022/10/10 17:26:33;;;;;;;10.52;5.70;;;;;;;;;;4971456;28;20058;-73
2022/10/10 17:29:00;;;;;;;5.20;4.70;;;;;;;;;;4970921;28;20042;-73
2022/10/10 17:31:26;;;;;;;4.57;4.18;;;;;;;;;;4971161;28;20410;-74
2022/10/10 17:33:52;;;;;;;7.78;4.40;;;;;;;;;;4971129;28;20507;-73
2022/10/10 17:36:19;;;;;;;6.47;4.13;;;;;;;;;;4952665;28;20023;-75
2022/10/10 17:38:45;;;;;;;5.18;4.22;;;;;;;;;;4953918;28;20043;-73
2022/10/10 17:41:12;;;;;;;7.20;4.78;;;;;;;;;;4970964;28;20388;-73
2022/10/10 17:43:37;;;;;;;6.80;4.20;;;;;;;;;;4953359;28;20041;-73
2022/10/10 17:46:04;;;;;;;7.28;4.25;;;;;;;;;;4951650;28;20034;-73
2022/10/10 17:48:31;;;;;;;6.45;4.75;;;;;;;;;;4984687;28;20080;-73
2022/10/10 17:50:57;;;;;;;7.13;4.15;;;;;;;;;;4979992;28;20045;-73
2022/10/10 17:53:24;;;;;;;7.13;4.40;;;;;;;;;;4969646;28;20098;-72
2022/10/10 17:55:51;;;;;;;5.30;3.72;;;;;;;;;;4968976;28;20073;-72
2022/10/10 17:58:16;;;;;;;5.38;4.28;;;;;;;;;;4967089;28;20491;-73
2022/10/10 18:00:42;;;;;;;4.40;4.00;;;;;;;;;;4970351;28;20039;-72
2022/10/10 18:03:08;;;;;;;5.05;4.38;;;;;;;;;;4951976;28;20035;-72
2022/10/10 18:05:35;;;;;;;5.75;4.40;;;;;;;;;;4939541;28;20031;-73
2022/10/10 18:08:01;;;;;;;7.85;5.10;;;;;;;;;;4967350;28;20100;-73
2022/10/10 18:10:29;;;;;;;8.52;5.10;;;;;;;;;;4956673;28;20864;-77
2022/10/10 18:12:55;;;;;;;5.53;4.43;;;;;;;;;;4954737;28;20038;-75
2022/10/10 18:15:21;;;;;;;5.00;4.50;;;;;;;;;;4971318;28;20039;-73
2022/10/10 18:17:47;;;;;;;5.50;4.70;;;;;;;;;;4972693;28;20046;-73
2022/10/10 18:20:13;;;;;;;7.78;4.35;;;;;;;;;;4951621;28;20116;-76
2022/10/10 18:22:39;;;;;;;6.78;4.70;;;;;;;;;;4959638;28;20035;-74
2022/10/10 18:25:05;;;;;;;8.70;4.40;;;;;;;;;;4952110;28;20043;-73
2022/10/10 18:27:32;;;;;;;6.60;4.40;;;;;;;;;;4969373;28;20410;-74
2022/10/10 18:29:58;;;;;;;7.65;4.72;;;;;;;;;;4949136;28;20039;-73
2022/10/10 18:32:24;;;;;;;8.10;5.30;;;;;;;;;;4965583;28;20085;-72
2022/10/10 18:34:49;;;;;;;5.40;4.90;;;;;;;;;;4969651;28;20034;-74
2022/10/10 18:37:15;;;;;;;9.88;4.97;;;;;;;;;;4959481;28;20042;-75
2022/10/10 18:39:41;;;;;;;7.82;5.40;;;;;;;;;;4951113;28;20039;-74
2022/10/10 18:42:07;;;;;;;7.35;5.22;;;;;;;;;;4953037;28;20031;-74
2022/10/10 18:44:33;;;;;;;5.18;4.68;;;;;;;;;;4955717;28;20061;-74
2022/10/10 18:46:59;;;;;;;7.88;4.70;;;;;;;;;;4970811;28;20133;-74
2022/10/10 18:49:25;;;;;;;7.88;5.10;;;;;;;;;;4957321;28;20555;-74
2022/10/10 18:51:51;;;;;;;5.25;4.60;;;;;;;;;;4953063;28;20125;-73
2022/10/10 18:54:17;;;;;;;4.30;3.95;;;;;;;;;;4917470;28;20045;-73
2022/10/10 18:56:44;;;;;;;5.68;4.68;;;;;;;;;;4950622;28;20036;-73
2022/10/10 18:59:13;;;;;;;5.85;5.05;;;;;;;;;;4950505;28;20090;-73
2022/10/10 19:01:39;;;;;;;5.68;4.50;;;;;;;;;;4950544;28;20102;-72
2022/10/10 19:04:06;;;;;;;5.38;4.47;;;;;;;;;;4948994;28;20107;-73
2022/10/10 19:06:32;;;;;;;6.32;4.35;;;;;;;;;;4934570;28;20031;-75
2022/10/10 19:08:59;;;;;;;6.35;5.00;;;;;;;;;;4970837;28;20132;-77
2022/10/10 19:11:30;;;;;;;9.18;4.95;;;;;;;;;;4965662;28;20034;-76
2022/10/10 19:13:59;;;;;;;7.70;5.15;;;;;;;;;;4938144;28;20038;-77
2022/10/10 19:16:25;;;;;;;8.48;4.85;;;;;;;;;;4972733;28;20035;-77
2022/10/10 19:18:51;;;;;;;7.20;4.60;;;;;;;;;;4972312;28;20089;-76
2022/10/10 19:21:17;;;;;;;8.23;5.10;;;;;;;;;;4972009;28;20502;-77
2022/10/10 19:23:44;;;;;;;7.43;5.10;;;;;;;;;;4955881;28;20038;-77
2022/10/10 19:26:11;;;;;;;7.57;5.30;;;;;;;;;;4973104;28;20113;-77
2022/10/10 19:28:38;;;;;;;7.57;4.60;;;;;;;;;;4947023;28;20045;-79
2022/10/10 19:31:13;;;;;;;5.95;4.38;;;;;;;;;;4955461;28;20027;-77
2022/10/10 19:33:40;;;;;;;8.27;4.95;;;;;;;;;;4972804;28;20066;-76
2022/10/10 19:36:08;;;;;;;5.20;4.60;;;;;;;;;;4955006;28;20073;-75
2022/10/10 19:38:34;;;;;;;7.97;4.82;;;;;;;;;;4955198;28;20045;-76
2022/10/10 19:41:00;;;;;;;5.82;4.30;;;;;;;;;;4972330;28;20459;-77
2022/10/10 19:43:26;;;;;;;7.43;4.50;;;;;;;;;;4955019;28;20042;-73
2022/10/10 19:45:52;;;;;;;7.38;4.75;;;;;;;;;;4972191;28;20112;-74
2022/10/10 19:48:19;;;;;;;6.60;5.05;;;;;;;;;;4971779;28;20093;-73
2022/10/10 19:50:45;;;;;;;15.82;5.78;;;;;;;;;;4955508;28;20030;-74
2022/10/10 19:53:12;;;;;;;7.18;5.30;;;;;;;;;;4972220;28;20082;-73
2022/10/10 19:55:38;;;;;;;10.07;5.40;;;;;;;;;;4939178;28;20089;-73
2022/10/10 19:58:04;;;;;;;11.15;5.40;;;;;;;;;;4972018;28;20042;-74
2022/10/10 20:00:29;;;;;;;6.78;5.53;;;;;;;;;;4972253;28;20590;-73
2022/10/10 20:02:56;;;;;;;9.93;5.72;;;;;;;;;;4971669;28;20137;-75
2022/10/10 20:05:22;;;;;;;5.88;4.75;;;;;;;;;;4948770;28;20035;-75
2022/10/10 20:07:48;;;;;;;7.20;4.63;;;;;;;;;;4969737;28;20599;-76
2022/10/10 20:10:15;;;;;;;12.93;6.13;;;;;;;;;;4974004;28;20426;-75
2022/10/10 20:12:41;;;;;;;10.25;4.38;;;;;;;;;;4991416;28;20034;-75
2022/10/10 20:15:07;;;;;;;5.35;4.82;;;;;;;;;;4991185;28;20042;-74
2022/10/10 20:17:34;;;;;;;6.03;5.00;;;;;;;;;;4991415;28;20132;-74
2022/10/10 20:20:01;;;;;;;5.88;4.43;;;;;;;;;;4991202;28;20030;-75
2022/10/10 20:22:28;;;;;;;14.93;5.10;;;;;;;;;;4991443;28;20128;-75
2022/10/10 20:24:55;;;;;;;6.30;5.28;;;;;;;;;;4957696;28;20026;-75
2022/10/10 20:27:21;;;;;;;10.20;4.95;;;;;;;;;;4991155;28;20050;-75
2022/10/10 20:29:48;;;;;;;8.40;5.00;;;;;;;;;;4973874;28;20026;-75
2022/10/10 20:32:14;;;;;;;10.07;5.15;;;;;;;;;;4990926;28;20096;-74
2022/10/10 20:34:40;;;;;;;5.18;4.68;;;;;;;;;;4991062;28;20034;-76
2022/10/10 20:37:06;;;;;;;5.75;4.72;;;;;;;;;;4974401;28;20081;-75